createdAt,value
2022-11-09T00:01:05.221Z,51342.84
2022-11-09T00:03:32.690Z,51328.94
2022-11-09T00:06:01.054Z,51324.97
2022-11-09T00:08:29.401Z,51301.09
2022-11-09T00:11:03.691Z,51344.84
2022-11-09T00:13:31.136Z,51336.91
2022-11-09T00:16:04.494Z,51313.03
2022-11-09T00:18:31.648Z,51321.00
2022-11-09T00:20:58.677Z,51344.84
2022-11-09T00:23:25.786Z,51342.84
2022-11-09T00:25:52.865Z,51334.91
2022-11-09T00:28:19.906Z,51336.91
2022-11-09T00:30:47.651Z,51336.91
2022-11-09T00:33:16.334Z,51324.97
2022-11-09T00:35:43.733Z,51309.06
2022-11-09T00:38:10.860Z,51326.94
2022-11-09T00:40:38.668Z,51301.09
2022-11-09T00:43:05.780Z,51324.97
2022-11-09T00:45:32.850Z,51332.91
2022-11-09T00:48:00.002Z,51330.94
2022-11-09T00:50:27.057Z,51324.97
2022-11-09T00:52:54.415Z,51328.94
2022-11-09T00:55:23.941Z,51321.00
2022-11-09T00:57:53.041Z,51352.78
2022-11-09T01:00:24.147Z,51344.84
2022-11-09T01:02:53.445Z,51309.06
2022-11-09T01:05:20.522Z,51301.09
2022-11-09T01:07:49.521Z,51321.00
2022-11-09T01:10:16.751Z,51317.00
2022-11-09T01:12:43.775Z,51313.03
2022-11-09T01:15:10.913Z,51328.94
2022-11-09T01:17:38.006Z,51315.03
2022-11-09T01:20:05.647Z,51352.78
2022-11-09T01:22:32.737Z,51313.03
2022-11-09T01:24:59.770Z,51315.03
2022-11-09T01:27:26.850Z,51311.06
2022-11-09T01:29:53.966Z,51336.91
2022-11-09T01:32:21.070Z,51346.84
2022-11-09T01:34:48.152Z,51322.97
2022-11-09T01:37:15.186Z,51319.00
2022-11-09T01:39:42.235Z,51324.97
2022-11-09T01:42:09.243Z,51336.91
2022-11-09T01:44:38.918Z,51326.94
2022-11-09T01:47:22.115Z,51342.84
2022-11-09T01:50:00.318Z,51338.88
2022-11-09T01:52:39.113Z,51336.91
2022-11-09T01:55:13.998Z,51336.91
2022-11-09T01:58:04.396Z,51334.91
2022-11-09T02:00:34.449Z,51324.97
2022-11-09T02:03:41.995Z,51324.97
2022-11-09T02:06:12.562Z,51368.69
2022-11-09T02:08:40.740Z,51317.00
2022-11-09T02:11:14.910Z,51322.97
2022-11-09T02:13:56.886Z,51315.03
2022-11-09T02:16:25.024Z,51326.94
2022-11-09T02:18:56.137Z,51328.94
2022-11-09T02:21:30.998Z,51326.94
2022-11-09T02:23:59.311Z,51326.94
2022-11-09T02:27:05.417Z,51340.88
2022-11-09T02:29:40.733Z,51332.91
2022-11-09T02:32:23.229Z,51307.06
2022-11-09T02:34:51.417Z,51313.03
2022-11-09T02:37:29.272Z,51321.00
2022-11-09T02:39:59.153Z,51334.91
2022-11-09T02:42:26.387Z,51328.94
2022-11-09T02:44:59.079Z,51319.00
2022-11-09T02:47:26.855Z,51334.91
2022-11-09T02:49:54.231Z,51342.84
2022-11-09T02:52:21.327Z,51311.06
2022-11-09T02:54:48.420Z,51299.13
2022-11-09T02:57:17.346Z,51344.84
2022-11-09T02:59:45.289Z,51340.88
2022-11-09T03:02:13.079Z,51340.88
2022-11-09T03:04:40.186Z,51326.94
2022-11-09T03:07:08.894Z,51334.91
2022-11-09T03:09:37.372Z,51321.00
2022-11-09T03:12:24.664Z,51356.78
2022-11-09T03:14:52.287Z,51326.94
2022-11-09T03:17:19.882Z,51334.91
2022-11-09T03:19:47.206Z,51319.00
2022-11-09T03:22:14.445Z,51295.16
2022-11-09T03:24:45.296Z,51301.09
2022-11-09T03:27:12.950Z,51299.13
2022-11-09T03:29:40.245Z,51332.91
2022-11-09T03:32:08.028Z,51322.97
2022-11-09T03:34:36.189Z,51340.88
2022-11-09T03:37:03.909Z,51326.94
2022-11-09T03:39:33.167Z,51334.91
2022-11-09T03:42:00.394Z,51297.13
2022-11-09T03:44:27.614Z,51321.00
2022-11-09T03:46:54.695Z,51332.91
2022-11-09T03:49:23.815Z,51324.97
2022-11-09T03:51:51.646Z,51321.00
2022-11-09T03:54:18.768Z,51317.00
2022-11-09T03:56:45.935Z,51291.16
2022-11-09T03:59:13.231Z,51299.13
2022-11-09T04:01:40.415Z,51326.94
2022-11-09T04:04:07.485Z,51346.84
2022-11-09T04:06:34.678Z,51332.91
2022-11-09T04:09:01.796Z,51315.03
2022-11-09T04:11:28.860Z,51315.03
2022-11-09T04:13:55.881Z,51334.91
2022-11-09T04:16:22.935Z,51305.09
2022-11-09T04:18:50.013Z,51344.84
2022-11-09T04:21:21.431Z,51305.09
2022-11-09T04:23:50.816Z,51315.03
2022-11-09T04:26:17.876Z,51299.13
2022-11-09T04:28:44.942Z,51319.00
2022-11-09T04:31:12.063Z,51328.94
2022-11-09T04:33:39.124Z,51332.91
2022-11-09T04:36:06.527Z,51321.00
2022-11-09T04:38:33.898Z,51311.06
2022-11-09T04:41:02.880Z,51319.00
2022-11-09T04:43:30.153Z,51297.13
2022-11-09T04:46:01.119Z,51305.09
2022-11-09T04:48:29.385Z,51317.00
2022-11-09T04:51:10.883Z,51293.16
2022-11-09T04:53:39.218Z,51313.03
2022-11-09T04:56:07.746Z,51305.09
2022-11-09T04:58:35.002Z,51362.75
2022-11-09T05:01:13.915Z,51317.00
2022-11-09T05:03:41.468Z,51301.09
2022-11-09T05:06:27.886Z,51348.81
2022-11-09T05:08:55.895Z,51321.00
2022-11-09T05:11:23.757Z,51334.91
2022-11-09T05:13:51.681Z,51319.00
2022-11-09T05:16:19.986Z,51330.94
2022-11-09T05:18:47.576Z,51317.00
2022-11-09T05:21:15.455Z,51326.94
2022-11-09T05:24:01.576Z,51330.94
2022-11-09T05:26:39.090Z,51301.09
2022-11-09T05:29:10.124Z,51332.91
2022-11-09T05:31:38.192Z,51332.91
2022-11-09T05:34:07.394Z,51326.94
2022-11-09T05:36:34.511Z,51324.97
2022-11-09T05:39:01.920Z,51319.00
2022-11-09T05:41:29.053Z,51328.94
2022-11-09T05:43:56.201Z,51350.81
2022-11-09T05:46:23.423Z,51319.00
2022-11-09T05:48:50.530Z,51309.06
2022-11-09T05:51:17.656Z,51326.94
2022-11-09T05:53:46.752Z,51332.91
2022-11-09T05:56:15.686Z,51321.00
2022-11-09T05:58:43.220Z,51340.88
2022-11-09T06:01:14.559Z,51358.75
2022-11-09T06:03:44.245Z,51342.84
2022-11-09T06:06:15.107Z,51305.09
2022-11-09T06:08:42.530Z,51332.91
2022-11-09T06:11:16.834Z,51315.03
2022-11-09T06:13:49.244Z,51344.84
2022-11-09T06:16:16.430Z,51321.00
2022-11-09T06:18:43.517Z,51328.94
2022-11-09T06:21:11.212Z,51319.00
2022-11-09T06:23:38.326Z,51332.91
2022-11-09T06:26:12.104Z,51321.00
2022-11-09T06:28:40.948Z,51350.81
2022-11-09T06:31:12.217Z,51309.06
2022-11-09T06:33:39.276Z,51326.94
2022-11-09T06:36:06.783Z,51348.81
2022-11-09T06:38:34.060Z,51317.00
2022-11-09T06:41:01.583Z,51321.00
2022-11-09T06:43:29.508Z,51319.00
2022-11-09T06:45:57.242Z,51307.06
2022-11-09T06:48:24.906Z,51340.88
2022-11-09T06:50:52.000Z,51342.84
2022-11-09T06:53:19.546Z,51326.94
2022-11-09T06:55:50.494Z,51342.84
2022-11-09T06:58:19.676Z,51311.06
2022-11-09T07:00:47.435Z,51338.88
2022-11-09T07:03:20.332Z,51328.94
2022-11-09T07:05:49.214Z,51344.84
2022-11-09T07:08:17.787Z,51326.94
2022-11-09T07:10:46.110Z,51332.91
2022-11-09T07:13:13.261Z,51326.94
2022-11-09T07:15:41.053Z,51340.88
2022-11-09T07:18:12.144Z,51315.03
2022-11-09T07:20:39.373Z,51317.00
2022-11-09T07:23:06.434Z,51322.97
2022-11-09T07:25:33.770Z,51307.06
2022-11-09T07:28:09.308Z,51340.88
2022-11-09T07:30:37.679Z,51332.91
2022-11-09T07:33:13.825Z,51336.91
2022-11-09T07:35:41.543Z,51332.91
2022-11-09T07:38:08.784Z,51348.81
2022-11-09T07:40:36.048Z,51330.94
2022-11-09T07:43:06.026Z,51352.78
2022-11-09T07:45:36.140Z,51356.78
2022-11-09T07:48:08.040Z,51360.75
2022-11-09T07:50:37.290Z,51362.75
2022-11-09T07:53:07.141Z,51328.94
2022-11-09T07:55:35.839Z,51332.91
2022-11-09T07:58:11.199Z,51338.88
2022-11-09T08:00:41.018Z,51354.78
2022-11-09T08:03:09.236Z,51328.94
2022-11-09T08:05:37.254Z,51321.00
2022-11-09T08:08:08.745Z,51342.84
2022-11-09T08:10:37.130Z,51334.91
2022-11-09T08:13:08.545Z,51356.78
2022-11-09T08:15:38.277Z,51332.91
2022-11-09T08:18:16.107Z,51344.84
2022-11-09T08:20:43.640Z,51376.66
2022-11-09T08:23:15.519Z,51342.84
2022-11-09T08:25:42.801Z,51340.88
2022-11-09T08:28:14.512Z,51330.94
2022-11-09T08:30:44.448Z,51332.91
2022-11-09T08:33:13.123Z,51364.72
2022-11-09T08:35:40.260Z,51330.94
2022-11-09T08:38:07.410Z,51348.81
2022-11-09T08:40:34.869Z,51350.81
2022-11-09T08:43:06.226Z,51338.88
2022-11-09T08:45:36.436Z,51350.81
2022-11-09T08:48:04.920Z,51380.63
2022-11-09T08:50:34.447Z,51330.94
2022-11-09T08:53:03.253Z,51317.00
2022-11-09T08:55:31.405Z,51348.81
2022-11-09T08:58:01.560Z,51334.91
2022-11-09T09:00:29.648Z,51346.84
2022-11-09T09:02:56.875Z,51348.81
2022-11-09T09:05:24.084Z,51342.84
2022-11-09T09:07:51.154Z,51344.84
2022-11-09T09:10:18.384Z,51332.91
2022-11-09T09:12:45.525Z,51352.78
2022-11-09T09:15:12.590Z,51378.66
2022-11-09T09:17:39.687Z,51354.78
2022-11-09T09:20:07.265Z,51362.75
2022-11-09T09:22:34.620Z,51360.75
2022-11-09T09:25:01.862Z,51368.69
2022-11-09T09:27:31.929Z,51376.66
2022-11-09T09:29:59.259Z,51344.84
2022-11-09T09:32:26.842Z,51370.69
2022-11-09T09:34:53.954Z,51356.78
2022-11-09T09:37:21.811Z,51356.78
2022-11-09T09:39:48.944Z,51360.75
2022-11-09T09:42:25.299Z,51362.75
2022-11-09T09:44:59.008Z,51370.69
2022-11-09T09:48:00.635Z,51366.72
2022-11-09T09:50:37.750Z,51374.66
2022-11-09T09:53:32.347Z,51372.69
2022-11-09T09:56:19.456Z,51360.75
2022-11-09T09:58:56.063Z,51352.78
2022-11-09T10:01:31.083Z,51376.66
2022-11-09T10:03:58.369Z,51380.63
2022-11-09T10:07:16.233Z,51348.81
2022-11-09T10:10:21.857Z,51342.84
2022-11-09T10:13:19.792Z,51358.75
2022-11-09T10:16:16.249Z,51380.63
2022-11-09T10:19:06.364Z,51354.78
2022-11-09T10:22:03.925Z,51382.63
2022-11-09T10:25:27.422Z,51366.72
2022-11-09T10:28:15.209Z,51376.66
2022-11-09T10:30:42.800Z,51364.72
2022-11-09T10:33:16.859Z,51360.75
2022-11-09T10:35:52.485Z,51354.78
2022-11-09T10:38:31.804Z,51356.78
2022-11-09T10:41:40.485Z,51368.69
2022-11-09T10:44:26.512Z,51360.75
2022-11-09T10:47:16.848Z,51330.94
2022-11-09T10:50:35.806Z,51364.72
2022-11-09T10:53:26.949Z,51354.78
2022-11-09T10:56:21.829Z,51338.88
2022-11-09T10:59:41.023Z,51398.53
2022-11-09T11:02:26.953Z,51392.56
2022-11-09T11:05:18.581Z,51366.72
2022-11-09T11:08:23.706Z,51372.69
2022-11-09T11:11:34.839Z,51364.72
2022-11-09T11:14:42.719Z,51352.78
2022-11-09T11:17:36.405Z,51348.81
2022-11-09T11:20:32.762Z,51332.91
2022-11-09T11:23:26.755Z,51370.69
2022-11-09T11:26:36.420Z,51384.59
2022-11-09T11:29:43.657Z,51374.66
2022-11-09T11:32:29.598Z,51366.72
2022-11-09T11:35:26.245Z,51396.53
2022-11-09T11:38:18.344Z,51398.53
2022-11-09T11:41:38.391Z,51386.59
2022-11-09T11:44:38.251Z,51384.59
2022-11-09T11:48:06.973Z,51376.66
2022-11-09T11:51:21.732Z,51384.59
2022-11-09T11:54:25.956Z,51388.59
2022-11-09T11:58:09.596Z,51390.56
2022-11-09T12:01:27.282Z,51434.31
2022-11-09T12:05:17.724Z,51424.38
2022-11-09T12:08:22.361Z,51416.41
2022-11-09T12:11:35.607Z,51404.50
2022-11-09T12:14:56.675Z,51428.34
2022-11-09T12:18:19.372Z,51416.41
2022-11-09T12:21:32.865Z,51416.41
2022-11-09T12:25:06.884Z,51396.53
2022-11-09T12:28:05.244Z,51384.59
2022-11-09T12:31:00.513Z,51388.59
2022-11-09T12:34:07.518Z,51378.66
2022-11-09T12:37:05.519Z,51400.50
2022-11-09T12:39:54.491Z,51364.72
2022-11-09T12:42:48.077Z,51366.72
2022-11-09T12:45:38.001Z,51344.84
2022-11-09T12:48:34.718Z,51382.63
2022-11-09T12:51:20.915Z,51386.59
2022-11-09T12:54:12.460Z,51384.59
2022-11-09T12:57:26.500Z,51400.50
2022-11-09T13:00:34.849Z,51418.41
2022-11-09T13:03:30.775Z,51444.25
2022-11-09T13:06:22.525Z,51474.06
2022-11-09T13:09:17.146Z,51523.78
2022-11-09T13:12:40.125Z,51466.13
2022-11-09T13:15:28.944Z,51495.94
2022-11-09T13:18:45.665Z,51525.75
2022-11-09T13:21:34.799Z,51533.72
2022-11-09T13:24:35.303Z,51599.31
2022-11-09T13:27:36.852Z,51589.38
2022-11-09T13:30:25.621Z,51565.53
2022-11-09T13:33:22.740Z,51555.59
2022-11-09T13:36:08.392Z,51501.91
2022-11-09T13:39:30.606Z,51464.13
2022-11-09T13:42:34.065Z,51452.19
2022-11-09T13:45:44.120Z,51507.88
2022-11-09T13:48:45.369Z,51541.66
2022-11-09T13:51:47.420Z,51541.66
2022-11-09T13:54:35.929Z,51577.47
2022-11-09T13:57:24.310Z,51605.28
2022-11-09T14:00:23.418Z,51527.75
2022-11-09T14:03:24.424Z,51511.84
2022-11-09T14:06:12.723Z,51446.25
2022-11-09T14:09:00.141Z,51466.13
2022-11-09T14:11:58.873Z,51444.25
2022-11-09T14:15:05.926Z,51448.22
2022-11-09T14:18:16.705Z,51452.19
2022-11-09T14:21:31.468Z,51414.44
2022-11-09T14:24:24.882Z,51394.53
2022-11-09T14:27:10.475Z,51392.56
2022-11-09T14:30:01.008Z,51388.59
2022-11-09T14:32:56.248Z,51388.59
2022-11-09T14:35:41.682Z,51392.56
2022-11-09T14:38:36.158Z,51378.66
2022-11-09T14:41:25.827Z,51386.59
2022-11-09T14:44:28.460Z,51372.69
2022-11-09T14:47:31.559Z,51384.59
2022-11-09T14:50:25.530Z,51362.75
2022-11-09T14:53:22.648Z,51402.50
2022-11-09T14:56:14.118Z,51358.75
2022-11-09T14:59:02.233Z,51366.72
2022-11-09T15:02:21.417Z,51362.75
2022-11-09T15:05:07.917Z,51364.72
2022-11-09T15:07:53.660Z,51370.69
2022-11-09T15:10:39.547Z,51360.75
2022-11-09T15:13:43.425Z,51368.69
2022-11-09T15:16:31.242Z,51364.72
2022-11-09T15:19:58.002Z,51330.94
2022-11-09T15:23:15.383Z,51348.81
2022-11-09T15:26:00.992Z,51346.84
2022-11-09T15:28:49.127Z,51360.75
2022-11-09T15:31:35.032Z,51346.84
2022-11-09T15:34:28.021Z,51356.78
2022-11-09T15:37:42.904Z,51336.91
2022-11-09T15:40:28.721Z,51336.91
2022-11-09T15:43:14.340Z,51330.94
2022-11-09T15:46:01.018Z,51328.94
2022-11-09T15:48:46.790Z,51328.94
2022-11-09T15:51:32.829Z,51332.91
2022-11-09T15:54:18.867Z,51334.91
2022-11-09T15:57:04.926Z,51328.94
2022-11-09T15:59:52.151Z,51334.91
2022-11-09T16:02:37.589Z,51362.75
2022-11-09T16:05:25.560Z,51336.91
2022-11-09T16:08:11.451Z,51358.75
2022-11-09T16:10:56.898Z,51326.94
2022-11-09T16:13:42.475Z,51364.72
2022-11-09T16:16:29.012Z,51356.78
2022-11-09T16:19:16.179Z,51330.94
2022-11-09T16:22:02.919Z,51332.91
2022-11-09T16:24:48.437Z,51358.75
2022-11-09T16:27:49.612Z,51342.84
2022-11-09T16:30:35.329Z,51350.81
2022-11-09T16:33:20.753Z,51330.94
2022-11-09T16:36:13.778Z,51330.94
2022-11-09T16:39:07.699Z,51370.69
2022-11-09T16:41:53.859Z,51348.81
2022-11-09T16:44:42.656Z,51338.88
2022-11-09T16:47:28.525Z,51360.75
2022-11-09T16:50:14.508Z,51336.91
2022-11-09T16:52:59.952Z,51342.84
2022-11-09T16:55:45.478Z,51321.00
2022-11-09T16:58:31.095Z,51334.91
2022-11-09T17:01:22.067Z,51340.88
2022-11-09T17:04:09.207Z,51326.94
2022-11-09T17:06:54.836Z,51330.94
2022-11-09T17:09:40.420Z,51342.84
2022-11-09T17:12:25.896Z,51338.88
2022-11-09T17:15:11.644Z,51364.72
2022-11-09T17:17:56.979Z,51321.00
2022-11-09T17:20:49.309Z,51322.97
2022-11-09T17:23:35.178Z,51366.72
2022-11-09T17:26:21.981Z,51344.84
2022-11-09T17:29:07.887Z,51334.91
2022-11-09T17:31:53.720Z,51342.84
2022-11-09T17:34:39.443Z,51356.78
2022-11-09T17:37:24.928Z,51332.91
2022-11-09T17:40:11.248Z,51322.97
2022-11-09T17:42:57.160Z,51317.00
2022-11-09T17:45:42.745Z,51328.94
2022-11-09T17:48:28.300Z,51311.06
2022-11-09T17:51:16.676Z,51344.84
2022-11-09T17:54:04.067Z,51340.88
2022-11-09T17:56:50.588Z,51322.97
2022-11-09T17:59:36.547Z,51348.81
2022-11-09T18:02:22.701Z,51344.84
2022-11-09T18:05:09.064Z,51328.94
2022-11-09T18:07:54.577Z,51338.88
2022-11-09T18:10:43.874Z,51328.94
2022-11-09T18:13:29.554Z,51348.81
2022-11-09T18:16:18.960Z,51326.94
2022-11-09T18:19:06.568Z,51332.91
2022-11-09T18:21:52.382Z,51360.75
2022-11-09T18:24:37.837Z,51368.69
2022-11-09T18:27:27.549Z,51336.91
2022-11-09T18:30:17.401Z,51354.78
2022-11-09T18:33:03.349Z,51322.97
2022-11-09T18:36:05.779Z,51336.91
2022-11-09T18:38:55.151Z,51352.78
2022-11-09T18:41:40.840Z,51344.84
2022-11-09T18:44:26.237Z,51352.78
2022-11-09T18:47:13.682Z,51354.78
2022-11-09T18:49:59.086Z,51342.84
2022-11-09T18:52:44.845Z,51342.84
2022-11-09T18:55:30.700Z,51305.09
2022-11-09T18:58:18.032Z,51348.81
2022-11-09T19:01:06.987Z,51344.84
2022-11-09T19:03:59.088Z,51344.84
2022-11-09T19:06:45.453Z,51319.00
2022-11-09T19:09:35.546Z,51326.94
2022-11-09T19:12:21.324Z,51346.84
2022-11-09T19:15:07.960Z,51372.69
2022-11-09T19:17:54.261Z,51350.81
2022-11-09T19:20:40.077Z,51352.78
2022-11-09T19:23:31.268Z,51358.75
2022-11-09T19:26:22.871Z,51348.81
2022-11-09T19:29:11.093Z,51384.59
2022-11-09T19:31:56.519Z,51350.81
2022-11-09T19:34:42.926Z,51376.66
2022-11-09T19:37:29.734Z,51330.94
2022-11-09T19:40:16.127Z,51317.00
2022-11-09T19:43:01.371Z,51336.91
2022-11-09T19:45:46.888Z,51342.84
2022-11-09T19:48:34.939Z,51315.03
2022-11-09T19:51:20.531Z,51321.00
2022-11-09T19:54:07.398Z,51330.94
2022-11-09T19:56:53.017Z,51344.84
2022-11-09T19:59:38.568Z,51358.75
2022-11-09T20:02:24.361Z,51356.78
2022-11-09T20:05:10.138Z,51332.91
2022-11-09T20:07:55.772Z,51328.94
2022-11-09T20:10:41.577Z,51336.91
2022-11-09T20:13:27.431Z,51356.78
2022-11-09T20:16:13.011Z,51332.91
2022-11-09T20:18:58.817Z,51352.78
2022-11-09T20:21:44.954Z,51346.84
2022-11-09T20:24:30.722Z,51366.72
2022-11-09T20:27:16.168Z,51354.78
2022-11-09T20:30:02.378Z,51352.78
2022-11-09T20:32:48.100Z,51332.91
2022-11-09T20:35:34.159Z,51338.88
2022-11-09T20:38:20.991Z,51356.78
2022-11-09T20:41:08.592Z,51344.84
2022-11-09T20:43:54.443Z,51344.84
2022-11-09T20:46:39.968Z,51346.84
2022-11-09T20:49:25.547Z,51338.88
2022-11-09T20:52:11.156Z,51344.84
2022-11-09T20:54:56.635Z,51352.78
2022-11-09T20:57:42.047Z,51348.81
2022-11-09T21:00:27.780Z,51307.06
2022-11-09T21:03:13.172Z,51307.06
2022-11-09T21:06:00.795Z,51330.94
2022-11-09T21:08:50.119Z,51362.75
2022-11-09T21:11:35.980Z,51350.81
2022-11-09T21:14:21.684Z,51346.84
2022-11-09T21:17:07.400Z,51328.94
2022-11-09T21:19:53.077Z,51344.84
2022-11-09T21:22:56.716Z,51344.84
2022-11-09T21:26:02.757Z,51362.75
2022-11-09T21:29:06.734Z,51326.94
2022-11-09T21:31:52.373Z,51348.81
2022-11-09T21:34:37.826Z,51309.06
2022-11-09T21:37:23.399Z,51380.63
2022-11-09T21:40:09.744Z,51356.78
2022-11-09T21:42:56.078Z,51321.00
2022-11-09T21:45:42.179Z,51328.94
2022-11-09T21:48:28.009Z,51321.00
2022-11-09T21:51:13.975Z,51352.78
2022-11-09T21:53:59.744Z,51360.75
2022-11-09T21:56:47.289Z,51350.81
2022-11-09T21:59:33.150Z,51350.81
2022-11-09T22:02:18.667Z,51354.78
2022-11-09T22:05:05.193Z,51332.91
2022-11-09T22:07:50.528Z,51334.91
2022-11-09T22:10:36.022Z,51356.78
2022-11-09T22:13:40.453Z,51358.75
2022-11-09T22:16:28.115Z,51370.69
2022-11-09T22:19:32.148Z,51364.72
2022-11-09T22:22:18.026Z,51346.84
2022-11-09T22:25:03.653Z,51342.84
2022-11-09T22:27:49.404Z,51374.66
2022-11-09T22:30:34.763Z,51354.78
2022-11-09T22:33:24.462Z,51362.75
2022-11-09T22:36:14.395Z,51384.59
2022-11-09T22:39:00.274Z,51368.69
2022-11-09T22:41:45.912Z,51390.56
2022-11-09T22:44:32.068Z,51380.63
2022-11-09T22:47:17.566Z,51362.75
2022-11-09T22:50:03.726Z,51358.75
2022-11-09T22:52:53.459Z,51350.81
2022-11-09T22:55:39.526Z,51356.78
2022-11-09T22:58:25.857Z,51390.56
2022-11-09T23:01:17.654Z,51356.78
2022-11-09T23:04:03.760Z,51356.78
2022-11-09T23:06:49.210Z,51368.69
2022-11-09T23:09:35.198Z,51372.69
2022-11-09T23:12:21.018Z,51334.91
2022-11-09T23:15:12.763Z,51356.78
2022-11-09T23:18:17.921Z,51364.72
2022-11-09T23:21:03.987Z,51364.72
2022-11-09T23:23:51.401Z,51326.94
2022-11-09T23:26:37.031Z,51356.78
2022-11-09T23:29:22.537Z,51364.72
2022-11-09T23:32:08.579Z,51356.78
2022-11-09T23:34:54.212Z,51392.56
2022-11-09T23:37:39.998Z,51358.75
2022-11-09T23:40:25.924Z,51358.75
2022-11-09T23:43:12.541Z,51380.63
2022-11-09T23:46:04.170Z,51360.75
2022-11-09T23:48:50.107Z,51370.69
2022-11-09T23:51:35.749Z,51400.50
2022-11-09T23:54:21.218Z,51370.69
2022-11-09T23:57:07.064Z,51386.59
2022-11-09T23:59:53.051Z,51356.78
